Time;durP1;ratioP1;P1;durP2;ratioP2;P2;SDS_P1;SDS_P2;PMS_P1;PMS_P2;Temp;Humidity;BMP_temperature;BMP_pressure;BME280_temperature;BME280_humidity;BME280_pressure;Samples;Min_cycle;Max_cycle;Signal;HPM_P1;HPM_P2
2022/08/21 00:01:57;;;;;;;17.20;6.80;;;19.20;99.90;;;;;;5051734;28;20116;-75
2022/08/21 00:04:24;;;;;;;22.33;7.70;;;19.20;99.90;;;;;;5051445;28;20036;-75
2022/08/21 00:06:51;;;;;;;18.13;7.88;;;19.20;99.90;;;;;;5038245;28;20067;-75
2022/08/21 00:09:18;;;;;;;19.20;7.30;;;19.20;99.90;;;;;;5031031;28;20025;-75
2022/08/21 00:11:44;;;;;;;16.83;7.78;;;19.20;99.90;;;;;;5031923;28;20363;-74
2022/08/21 00:14:10;;;;;;;19.57;7.27;;;19.20;99.90;;;;;;5033133;28;20030;-74
2022/08/21 00:16:37;;;;;;;;;;;19.10;99.90;;;;;;5042310;28;20040;-76
2022/08/21 00:19:03;;;;;;;21.73;7.32;;;19.00;99.90;;;;;;5039454;28;19953;-75
2022/08/21 00:21:28;;;;;;;15.70;6.97;;;19.10;99.90;;;;;;5049997;28;20117;-74
2022/08/21 00:23:54;;;;;;;23.07;8.57;;;19.00;99.90;;;;;;5051068;28;20215;-75
2022/08/21 00:26:20;;;;;;;24.73;8.00;;;19.00;99.90;;;;;;5049766;28;20433;-75
2022/08/21 00:28:48;;;;;;;23.20;7.47;;;18.90;99.90;;;;;;5039135;28;20084;-75
2022/08/21 00:31:14;;;;;;;22.50;7.22;;;18.90;99.90;;;;;;5031210;28;20037;-75
2022/08/21 00:33:40;;;;;;;13.93;7.55;;;18.90;99.90;;;;;;5031270;28;20021;-75
2022/08/21 00:36:06;;;;;;;19.10;7.80;;;18.90;99.90;;;;;;5031116;28;20038;-75
2022/08/21 00:38:32;;;;;;;24.43;7.43;;;18.80;99.90;;;;;;5049045;28;20029;-74
2022/08/21 00:41:00;;;;;;;22.07;7.30;;;18.80;99.90;;;;;;5050162;28;20282;-74
2022/08/21 00:43:31;;;;;;;24.10;7.43;;;18.70;99.90;;;;;;5042085;28;20029;-75
2022/08/21 00:45:58;;;;;;;19.77;7.35;;;18.70;99.90;;;;;;5030814;28;20072;-75
2022/08/21 00:48:24;;;;;;;19.75;7.57;;;18.70;99.90;;;;;;5031024;28;20038;-75
2022/08/21 00:51:09;;;;;;;17.98;7.10;;;18.70;99.90;;;;;;5031043;28;20037;-75
2022/08/21 00:53:43;;;;;;;17.45;6.85;;;18.60;99.90;;;;;;5048519;28;20041;-75
2022/08/21 00:56:11;;;;;;;26.42;7.35;;;18.60;99.90;;;;;;5048999;28;20400;-75
2022/08/21 00:58:39;;;;;;;18.17;7.63;;;18.60;99.90;;;;;;5042849;28;20124;-75
2022/08/21 01:01:07;;;;;;;23.70;7.47;;;18.60;99.90;;;;;;5031657;28;20354;-75
2022/08/21 01:03:33;;;;;;;20.73;7.88;;;18.60;99.90;;;;;;5029132;28;20083;-74
2022/08/21 01:05:59;;;;;;;18.90;6.70;;;18.50;99.90;;;;;;5043485;28;20055;-75
2022/08/21 01:08:25;;;;;;;19.10;7.20;;;18.50;99.90;;;;;;5050403;28;20040;-74
2022/08/21 01:10:54;;;;;;;16.30;7.37;;;18.50;99.90;;;;;;5050442;28;20037;-74
2022/08/21 01:13:22;;;;;;;19.20;6.57;;;18.60;99.90;;;;;;5048081;28;20668;-75
2022/08/21 01:15:49;;;;;;;20.95;7.45;;;18.50;99.90;;;;;;5030499;28;20080;-74
2022/08/21 01:18:16;;;;;;;17.95;6.93;;;18.50;99.90;;;;;;5029065;28;20025;-74
2022/08/21 01:20:49;;;;;;;20.70;7.47;;;18.50;99.90;;;;;;5030465;28;20143;-74
2022/08/21 01:23:15;;;;;;;15.98;6.85;;;18.50;99.90;;;;;;5041479;28;20491;-74
2022/08/21 01:25:41;;;;;;;20.97;7.03;;;18.60;99.90;;;;;;5050310;28;20074;-74
2022/08/21 01:28:13;;;;;;;18.70;6.72;;;18.50;99.90;;;;;;5050294;28;20029;-74
2022/08/21 01:30:41;;;;;;;24.30;7.57;;;18.50;99.90;;;;;;5031122;28;20113;-75
2022/08/21 01:33:07;;;;;;;21.17;6.72;;;18.60;99.90;;;;;;5012905;28;20044;-75
2022/08/21 01:35:33;;;;;;;20.23;7.33;;;18.50;99.90;;;;;;5030152;28;20317;-75
2022/08/21 01:37:59;;;;;;;22.30;7.50;;;18.50;99.90;;;;;;5036870;28;20052;-74
2022/08/21 01:40:25;;;;;;;15.80;6.17;;;18.60;99.90;;;;;;5048323;28;20037;-75
2022/08/21 01:42:51;;;;;;;18.20;6.20;;;18.60;99.90;;;;;;5048560;28;20488;-75
2022/08/21 01:45:17;;;;;;;13.47;6.23;;;18.60;99.90;;;;;;5036039;28;20069;-75
2022/08/21 01:47:43;;;;;;;20.30;6.57;;;18.60;99.90;;;;;;5030003;28;20087;-75
2022/08/21 01:50:13;;;;;;;15.07;6.25;;;18.60;99.90;;;;;;5029935;28;20042;-75
2022/08/21 01:52:39;;;;;;;12.63;6.30;;;18.60;99.90;;;;;;5032523;28;20029;-75
2022/08/21 01:55:07;;;;;;;17.92;6.60;;;18.60;99.90;;;;;;5052625;28;20041;-75
2022/08/21 01:57:33;;;;;;;18.85;6.38;;;18.60;99.90;;;;;;5053782;28;20059;-74
2022/08/21 01:59:59;;;;;;;19.38;6.85;;;18.60;99.90;;;;;;5042999;28;20029;-74
2022/08/21 02:02:25;;;;;;;15.63;6.10;;;18.60;99.90;;;;;;5033962;28;20389;-74
2022/08/21 02:04:50;;;;;;;13.43;6.30;;;18.70;99.90;;;;;;5032447;28;20034;-75
2022/08/21 02:07:16;;;;;;;20.23;7.33;;;18.70;99.90;;;;;;5033982;28;20029;-74
2022/08/21 02:09:42;;;;;;;19.38;7.45;;;18.80;99.90;;;;;;5050579;28;20021;-74
2022/08/21 02:12:09;;;;;;;17.27;7.03;;;18.80;99.90;;;;;;5052427;28;20112;-74
2022/08/21 02:14:35;;;;;;;;;;;18.80;99.90;;;;;;5050597;28;20278;-74
2022/08/21 02:17:01;;;;;;;19.10;7.05;;;18.80;99.90;;;;;;5050652;28;19923;-73
2022/08/21 02:19:26;;;;;;;19.95;6.93;;;18.80;99.90;;;;;;5053568;28;20381;-74
2022/08/21 02:21:52;;;;;;;23.10;8.60;;;18.80;99.90;;;;;;5054021;28;20029;-74
2022/08/21 02:24:18;;;;;;;20.53;7.87;;;18.70;99.90;;;;;;5039060;28;20096;-75
2022/08/21 02:26:43;;;;;;;23.43;9.27;;;18.70;99.90;;;;;;5033513;28;20057;-74
2022/08/21 02:29:09;;;;;;;22.57;8.60;;;18.70;99.90;;;;;;5033955;28;20022;-75
2022/08/21 02:31:34;;;;;;;26.03;9.73;;;18.70;99.90;;;;;;5053684;28;20029;-75
2022/08/21 02:34:00;;;;;;;30.27;9.93;;;18.70;99.90;;;;;;5053376;28;20060;-75
2022/08/21 02:36:26;;;;;;;30.10;10.37;;;18.70;99.90;;;;;;5051974;28;20029;-75
2022/08/21 02:38:52;;;;;;;29.43;10.77;;;18.70;99.90;;;;;;5042746;28;20033;-75
2022/08/21 02:41:20;;;;;;;17.63;8.00;;;18.70;99.90;;;;;;5033066;28;20096;-74
2022/08/21 02:43:46;;;;;;;18.25;7.85;;;18.70;99.90;;;;;;5033176;28;20373;-74
2022/08/21 02:46:15;;;;;;;21.42;9.57;;;18.70;99.90;;;;;;5048782;28;20498;-75
2022/08/21 02:48:41;;;;;;;26.40;10.38;;;18.70;99.90;;;;;;5053144;28;20430;-75
2022/08/21 02:51:17;;;;;;;27.97;9.17;;;18.70;99.90;;;;;;5051641;28;20033;-75
2022/08/21 02:53:44;;;;;;;20.83;9.13;;;18.70;99.90;;;;;;5047414;28;20086;-75
2022/08/21 02:56:12;;;;;;;18.23;8.00;;;18.70;99.90;;;;;;5032779;28;20038;-75
2022/08/21 02:58:43;;;;;;;18.85;7.82;;;18.60;99.90;;;;;;5032874;28;20029;-75
2022/08/21 03:01:09;;;;;;;16.98;6.70;;;18.50;99.90;;;;;;5045500;28;20033;-74
2022/08/21 03:03:41;;;;;;;19.42;7.97;;;18.50;99.90;;;;;;5052346;28;20379;-74
2022/08/21 03:06:09;;;;;;;17.02;6.43;;;18.50;99.90;;;;;;5053023;28;20033;-74
2022/08/21 03:08:35;;;;;;;17.58;6.25;;;18.40;99.90;;;;;;5050137;28;20033;-74
2022/08/21 03:11:01;;;;;;;19.15;6.10;;;18.40;99.90;;;;;;5033001;28;20473;-75
2022/08/21 03:13:27;;;;;;;20.37;7.30;;;18.40;99.90;;;;;;5031257;28;20041;-75
2022/08/21 03:15:53;;;;;;;13.88;6.88;;;18.40;99.90;;;;;;5041602;28;20499;-75
2022/08/21 03:18:19;;;;;;;17.37;6.43;;;18.30;99.90;;;;;;5052367;28;20021;-75
2022/08/21 03:20:45;;;;;;;23.60;6.50;;;18.30;99.90;;;;;;5052768;28;20095;-75
2022/08/21 03:23:11;;;;;;;15.43;6.55;;;18.30;99.90;;;;;;5052651;28;20029;-74
2022/08/21 03:25:38;;;;;;;15.20;6.40;;;18.40;99.90;;;;;;5051616;28;20039;-74
2022/08/21 03:28:09;;;;;;;19.67;6.93;;;18.30;99.90;;;;;;5052378;28;20056;-75
2022/08/21 03:30:35;;;;;;;17.85;6.05;;;18.30;99.90;;;;;;5045661;28;20034;-74
2022/08/21 03:33:01;;;;;;;18.13;5.97;;;18.30;99.90;;;;;;5032471;28;20562;-74
2022/08/21 03:35:27;;;;;;;20.17;6.50;;;18.30;99.90;;;;;;5032439;28;20064;-74
2022/08/21 03:37:54;;;;;;;15.98;5.88;;;18.30;99.90;;;;;;5032311;28;20033;-75
2022/08/21 03:40:20;;;;;;;25.00;5.75;;;18.30;99.90;;;;;;5044894;28;20048;-75
2022/08/21 03:42:46;;;;;;;20.23;5.80;;;18.40;99.90;;;;;;5052252;28;20425;-74
2022/08/21 03:45:14;;;;;;;23.10;6.20;;;18.40;99.90;;;;;;5051670;28;20033;-75
2022/08/21 03:47:51;;;;;;;16.15;5.10;;;18.30;99.90;;;;;;5048881;28;20032;-74
2022/08/21 03:50:17;;;;;;;20.33;6.03;;;18.30;99.90;;;;;;5051920;28;20041;-74
2022/08/21 03:52:42;;;;;;;16.30;5.63;;;18.30;99.90;;;;;;5050616;28;20032;-74
2022/08/21 03:55:08;;;;;;;17.27;5.87;;;18.20;99.90;;;;;;5041816;28;20041;-74
2022/08/21 03:57:33;;;;;;;16.90;5.90;;;18.20;99.90;;;;;;5030618;28;20241;-74
2022/08/21 03:59:59;;;;;;;15.53;5.70;;;18.20;99.90;;;;;;5030387;28;20397;-74
2022/08/21 04:02:25;;;;;;;16.17;5.47;;;18.20;99.90;;;;;;5047422;28;20526;-74
2022/08/21 04:04:50;;;;;;;17.00;5.63;;;18.20;99.90;;;;;;5051377;28;20027;-75
2022/08/21 04:07:17;;;;;;;19.13;6.00;;;18.20;99.90;;;;;;5050297;28;20028;-74
2022/08/21 04:09:44;;;;;;;18.25;5.97;;;18.20;99.90;;;;;;5047128;28;20018;-74
2022/08/21 04:12:09;;;;;;;18.45;6.13;;;18.20;99.90;;;;;;5030154;28;20065;-75
2022/08/21 04:14:35;;;;;;;14.17;6.37;;;18.20;99.90;;;;;;5030587;28;20106;-75
2022/08/21 04:17:00;;;;;;;21.63;5.50;;;18.30;99.90;;;;;;5031117;28;20031;-75
2022/08/21 04:19:26;;;;;;;12.63;5.63;;;18.30;99.90;;;;;;5032747;28;20029;-74
2022/08/21 04:21:52;;;;;;;25.30;5.53;;;18.30;99.90;;;;;;5031683;28;20036;-75
2022/08/21 04:24:17;;;;;;;14.73;5.30;;;18.40;99.90;;;;;;5031414;28;20052;-75
2022/08/21 04:26:43;;;;;;;17.90;4.70;;;18.40;99.90;;;;;;5048754;28;20033;-75
2022/08/21 04:29:09;;;;;;;17.63;6.33;;;18.40;99.90;;;;;;5051102;28;20099;-75
2022/08/21 04:31:36;;;;;;;18.50;5.43;;;18.50;99.90;;;;;;5044439;28;20064;-75
2022/08/21 04:34:04;;;;;;;13.07;4.40;;;18.50;99.90;;;;;;5031157;28;20051;-75
2022/08/21 04:36:30;;;;;;;16.63;5.07;;;18.50;99.90;;;;;;5030893;28;20033;-75
2022/08/21 04:38:56;;;;;;;21.30;5.57;;;18.50;99.90;;;;;;5031461;28;20044;-76
2022/08/21 04:41:21;;;;;;;22.07;6.23;;;18.60;99.90;;;;;;5043211;28;20716;-75
2022/08/21 04:43:47;;;;;;;11.90;4.83;;;18.70;99.90;;;;;;5051388;28;20070;-76
2022/08/21 04:46:12;;;;;;;22.43;5.83;;;18.60;99.90;;;;;;5050417;28;20028;-75
2022/08/21 04:48:38;;;;;;;19.67;4.87;;;18.70;99.90;;;;;;5029562;28;20025;-75
2022/08/21 04:51:19;;;;;;;14.30;5.00;;;18.70;99.90;;;;;;5031222;28;20056;-75
2022/08/21 04:54:01;;;;;;;12.07;4.88;;;18.70;99.90;;;;;;5030787;28;20516;-75
2022/08/21 04:56:31;;;;;;;16.13;5.25;;;18.80;99.90;;;;;;5043419;28;20300;-75
2022/08/21 04:59:03;;;;;;;15.98;5.20;;;18.80;99.90;;;;;;5050846;28;20044;-75
2022/08/21 05:01:32;;;;;;;16.00;4.70;;;18.90;99.90;;;;;;5050154;28;20079;-75
2022/08/21 05:03:59;;;;;;;22.20;4.97;;;18.90;99.90;;;;;;5031084;28;20025;-74
2022/08/21 05:06:27;;;;;;;16.90;4.72;;;19.00;99.90;;;;;;5030424;28;20396;-74
2022/08/21 05:08:55;;;;;;;15.15;4.53;;;19.10;99.90;;;;;;5030572;28;20037;-75
2022/08/21 05:11:21;;;;;;;20.10;4.80;;;19.10;99.90;;;;;;5040434;28;20116;-76
2022/08/21 05:13:48;;;;;;;23.08;5.25;;;19.10;99.90;;;;;;5050535;28;20114;-74
2022/08/21 05:16:15;;;;;;;18.00;4.88;;;19.10;99.90;;;;;;5050637;28;20040;-74
2022/08/21 05:18:41;;;;;;;17.60;5.88;;;19.20;99.90;;;;;;5034553;28;20033;-75
2022/08/21 05:21:07;;;;;;;19.57;5.47;;;19.20;99.90;;;;;;5029001;28;20489;-75
2022/08/21 05:23:33;;;;;;;14.30;4.25;;;19.00;99.90;;;;;;5030469;28;20026;-75
2022/08/21 05:25:59;;;;;;;15.27;4.53;;;19.20;99.90;;;;;;5034936;28;20125;-75
2022/08/21 05:28:25;;;;;;;17.63;4.57;;;19.20;99.90;;;;;;5049198;28;20028;-76
2022/08/21 05:30:51;;;;;;;17.38;5.07;;;19.30;99.90;;;;;;5048972;28;20540;-75
2022/08/21 05:33:17;;;;;;;14.73;4.30;;;19.40;99.90;;;;;;5037108;28;20046;-75
2022/08/21 05:35:42;;;;;;;21.73;4.90;;;19.50;99.90;;;;;;5030569;28;20053;-75
2022/08/21 05:38:08;;;;;;;12.03;4.23;;;19.50;99.90;;;;;;5029097;28;20026;-74
2022/08/21 05:40:34;;;;;;;16.27;5.37;;;19.50;99.90;;;;;;5030081;28;20561;-75
2022/08/21 05:43:00;;;;;;;16.00;5.20;;;19.50;99.90;;;;;;5048987;28;20472;-75
2022/08/21 05:45:30;;;;;;;14.88;4.43;;;19.60;99.90;;;;;;5049836;28;20044;-75
2022/08/21 05:47:55;;;;;;;17.20;4.40;;;19.60;99.90;;;;;;5043973;28;20034;-75
2022/08/21 05:50:21;;;;;;;18.53;6.10;;;19.60;99.90;;;;;;5030448;28;20065;-74
2022/08/21 05:52:47;;;;;;;17.40;4.87;;;19.60;99.90;;;;;;5030304;28;20473;-74
2022/08/21 05:55:13;;;;;;;14.10;4.63;;;19.60;99.90;;;;;;5030366;28;20034;-75
2022/08/21 05:57:40;;;;;;;19.25;4.90;;;19.70;99.90;;;;;;5042923;28;20544;-74
2022/08/21 06:00:12;;;;;;;14.15;5.03;;;19.70;99.90;;;;;;5049934;28;20041;-75
2022/08/21 06:02:37;;;;;;;18.70;5.03;;;19.80;99.90;;;;;;5047900;28;20021;-75
2022/08/21 06:05:03;;;;;;;15.30;4.13;;;19.80;99.90;;;;;;5030091;28;20065;-75
2022/08/21 06:07:29;;;;;;;23.43;6.03;;;19.90;99.90;;;;;;5028570;28;20029;-75
2022/08/21 06:09:54;;;;;;;19.53;6.23;;;20.00;99.90;;;;;;5030329;28;20032;-75
2022/08/21 06:12:20;;;;;;;15.07;4.90;;;20.00;99.90;;;;;;5039300;28;20451;-75
2022/08/21 06:14:45;;;;;;;14.63;4.90;;;20.20;99.90;;;;;;5049526;28;20029;-75
2022/08/21 06:17:13;;;;;;;13.60;4.93;;;20.20;99.90;;;;;;5048350;28;20105;-75
2022/08/21 06:19:39;;;;;;;20.92;4.65;;;20.20;99.90;;;;;;5046279;28;20021;-75
2022/08/21 06:22:05;;;;;;;20.67;4.63;;;20.30;99.90;;;;;;5029905;28;20072;-74
2022/08/21 06:24:31;;;;;;;12.07;5.03;;;20.50;99.90;;;;;;5029782;28;20650;-74
2022/08/21 06:26:58;;;;;;;17.90;5.05;;;20.50;99.90;;;;;;5034093;28;20032;-74
2022/08/21 06:29:24;;;;;;;20.08;5.32;;;20.50;99.90;;;;;;5049661;28;20358;-75
2022/08/21 06:31:51;;;;;;;15.18;4.53;;;20.50;99.90;;;;;;5049835;28;20411;-75
2022/08/21 06:34:17;;;;;;;16.73;4.88;;;20.50;99.90;;;;;;5036839;28;20029;-76
2022/08/21 06:36:44;;;;;;;19.42;4.80;;;20.60;99.90;;;;;;5028514;28;20065;-75
2022/08/21 06:39:10;;;;;;;19.05;4.30;;;20.70;99.90;;;;;;5030695;28;20025;-75
2022/08/21 06:41:35;;;;;;;17.05;4.72;;;20.80;99.90;;;;;;5034097;28;20053;-75
2022/08/21 06:44:01;;;;;;;12.33;5.50;;;20.90;99.90;;;;;;5031619;28;20121;-75
2022/08/21 06:46:31;;;;;;;20.37;5.27;;;21.00;99.90;;;;;;5031718;28;20041;-75
2022/08/21 06:48:57;;;;;;;13.88;5.30;;;20.90;99.90;;;;;;5037806;28;20040;-74
2022/08/21 06:51:23;;;;;;;11.95;4.53;;;20.90;99.90;;;;;;5052966;28;20044;-75
2022/08/21 06:53:49;;;;;;;18.70;5.18;;;21.00;99.90;;;;;;5053050;28;20033;-75
2022/08/21 06:56:15;;;;;;;18.27;5.00;;;21.20;99.90;;;;;;5053121;28;20037;-75
2022/08/21 06:58:40;;;;;;;16.80;4.67;;;21.30;99.90;;;;;;5038107;28;20065;-75
2022/08/21 07:01:06;;;;;;;21.97;5.77;;;21.40;99.90;;;;;;5033038;28;20036;-74
2022/08/21 07:03:35;;;;;;;16.47;5.10;;;21.30;99.90;;;;;;5033316;28;20104;-74
2022/08/21 07:06:01;;;;;;;11.18;4.50;;;21.30;99.90;;;;;;5053097;28;20036;-75
2022/08/21 07:08:28;;;;;;;20.20;5.50;;;21.50;99.90;;;;;;5052654;28;20783;-74
2022/08/21 07:10:57;;;;;;;19.38;5.43;;;21.60;99.90;;;;;;5052883;28;20530;-75
2022/08/21 07:13:22;;;;;;;16.27;4.80;;;21.70;99.90;;;;;;5042501;28;20037;-75
2022/08/21 07:15:48;;;;;;;12.90;4.63;;;21.80;99.90;;;;;;5031285;28;20041;-74
2022/08/21 07:18:14;;;;;;;19.67;5.10;;;21.90;99.90;;;;;;5031218;28;20443;-74
2022/08/21 07:20:41;;;;;;;19.57;5.47;;;22.00;99.90;;;;;;5046638;28;20403;-74
2022/08/21 07:23:26;;;;;;;;;;;22.20;99.90;;;;;;5052745;28;20025;-74
2022/08/21 07:25:52;;;;;;;12.95;4.63;;;22.30;99.90;;;;;;5052303;28;20260;-75
2022/08/21 07:28:18;;;;;;;21.13;5.20;;;22.40;99.90;;;;;;5043832;28;20041;-74
2022/08/21 07:30:44;;;;;;;14.70;5.25;;;22.50;99.90;;;;;;5032663;28;20088;-75
2022/08/21 07:33:09;;;;;;;15.52;5.35;;;22.40;99.90;;;;;;5032186;28;20493;-75
2022/08/21 07:35:35;;;;;;;12.60;5.23;;;22.50;99.90;;;;;;5044518;28;20060;-75
2022/08/21 07:38:00;;;;;;;16.27;5.23;;;22.50;99.90;;;;;;5048681;28;20021;-74
2022/08/21 07:40:26;;;;;;;17.77;5.87;;;22.50;99.90;;;;;;5051923;28;20480;-74
2022/08/21 07:42:52;;;;;;;16.80;5.80;;;22.50;99.90;;;;;;5051269;28;20021;-75
2022/08/21 07:45:24;;;;;;;11.80;5.10;;;22.60;99.90;;;;;;5051948;28;20472;-74
2022/08/21 07:47:50;;;;;;;19.58;6.60;;;22.70;99.90;;;;;;5050533;28;20052;-75
2022/08/21 07:50:16;;;;;;;14.18;4.10;;;22.90;99.90;;;;;;5042310;28;20392;-75
2022/08/21 07:52:43;;;;;;;15.07;5.15;;;23.10;99.90;;;;;;5032109;28;20658;-75
2022/08/21 07:55:12;;;;;;;17.23;5.28;;;23.10;99.90;;;;;;5032098;28;20033;-74
2022/08/21 07:57:37;;;;;;;19.17;5.13;;;23.10;99.90;;;;;;5032084;28;20036;-75
2022/08/21 08:00:06;;;;;;;16.58;4.78;;;23.20;99.90;;;;;;5048938;28;20245;-74
2022/08/21 08:02:31;;;;;;;17.58;4.65;;;23.30;99.90;;;;;;5050015;28;20026;-74
2022/08/21 08:05:00;;;;;;;16.73;5.37;;;23.40;99.90;;;;;;5049883;28;20032;-74
2022/08/21 08:07:26;;;;;;;17.38;5.45;;;23.50;99.90;;;;;;5048322;28;20118;-74
2022/08/21 08:09:52;;;;;;;23.70;4.90;;;23.50;99.90;;;;;;5049952;28;20091;-74
2022/08/21 08:12:18;;;;;;;25.47;5.20;;;23.60;99.90;;;;;;5050260;28;20120;-74
2022/08/21 08:14:44;;;;;;;12.32;5.43;;;23.70;99.90;;;;;;5037987;28;20032;-75
2022/08/21 08:17:10;;;;;;;17.73;6.40;;;23.90;99.90;;;;;;5031483;28;20021;-74
2022/08/21 08:19:35;;;;;;;14.48;4.75;;;24.10;99.90;;;;;;5030060;28;20076;-74
2022/08/21 08:22:01;;;;;;;20.53;5.10;;;24.10;99.90;;;;;;5048926;28;20044;-73
2022/08/21 08:24:27;;;;;;;17.73;5.03;;;24.10;99.90;;;;;;5051026;28;20481;-73
2022/08/21 08:26:53;;;;;;;16.53;4.10;;;24.10;99.90;;;;;;5051445;28;20039;-74
2022/08/21 08:29:20;;;;;;;18.48;4.60;;;24.10;99.90;;;;;;5043319;28;20029;-74
2022/08/21 08:31:46;;;;;;;20.33;4.70;;;24.10;99.90;;;;;;5030000;28;20117;-74
2022/08/21 08:34:11;;;;;;;25.57;5.23;;;24.30;99.90;;;;;;5029640;28;20121;-73
2022/08/21 08:36:37;;;;;;;15.40;4.37;;;24.40;99.90;;;;;;5042534;28;20542;-73
2022/08/21 08:39:04;;;;;;;18.10;5.13;;;24.60;99.90;;;;;;5048960;28;20080;-73
2022/08/21 08:41:30;;;;;;;;;;;24.70;99.90;;;;;;5050943;28;20055;-74
2022/08/21 08:44:02;;;;;;;21.80;4.82;;;24.70;99.90;;;;;;5048001;28;19908;-74
2022/08/21 08:46:51;;;;;;;17.85;4.60;;;24.90;99.90;;;;;;5031156;28;20060;-74
2022/08/21 08:49:40;;;;;;;22.48;5.38;;;25.20;99.90;;;;;;5030724;28;20353;-73
2022/08/21 08:52:20;;;;;;;18.35;3.95;;;25.50;99.90;;;;;;5030418;28;20065;-73
2022/08/21 08:55:00;;;;;;;19.02;4.20;;;25.60;99.90;;;;;;5030419;28;20481;-73
2022/08/21 08:57:26;;;;;;;12.90;4.43;;;25.70;99.90;;;;;;5029279;28;20028;-73
2022/08/21 08:59:55;;;;;;;25.33;5.03;;;25.60;99.90;;;;;;5048014;28;20021;-73
2022/08/21 09:02:23;;;;;;;22.35;4.72;;;25.80;99.90;;;;;;5048263;28;20063;-73
2022/08/21 09:04:51;;;;;;;19.10;5.00;;;25.90;99.90;;;;;;5049919;28;20021;-73
2022/08/21 09:08:02;;;;;;;14.18;4.18;;;26.00;99.90;;;;;;5048530;28;20017;-73
2022/08/21 09:10:43;;;;;;;13.68;4.22;;;26.20;99.90;;;;;;5047404;28;20368;-73
2022/08/21 09:13:43;;;;;;;17.63;4.97;;;26.40;99.90;;;;;;5050369;28;20029;-73
2022/08/21 09:16:56;;;;;;;19.27;3.90;;;26.50;99.90;;;;;;5032242;28;20045;-75
2022/08/21 09:19:31;;;;;;;18.73;4.47;;;26.60;99.90;;;;;;5028836;28;20025;-73
2022/08/21 09:22:15;;;;;;;21.60;5.07;;;26.50;99.90;;;;;;5039236;28;20333;-74
2022/08/21 09:24:47;;;;;;;13.05;4.30;;;26.50;99.90;;;;;;5048954;28;20032;-74
2022/08/21 09:27:16;;;;;;;15.63;4.65;;;26.60;99.90;;;;;;5050206;28;20048;-75
2022/08/21 09:29:47;;;;;;;18.98;4.40;;;26.80;99.90;;;;;;5047341;28;20147;-76
2022/08/21 09:32:19;;;;;;;16.00;4.60;;;26.80;99.90;;;;;;5030288;28;20475;-74
2022/08/21 09:35:17;;;;;;;19.55;4.63;;;26.80;99.90;;;;;;5030162;28;20072;-74
2022/08/21 09:38:02;;;;;;;16.77;4.40;;;26.70;99.90;;;;;;5043234;28;20069;-75
2022/08/21 09:40:45;;;;;;;19.13;4.10;;;26.50;99.90;;;;;;5049743;28;20091;-75
2022/08/21 09:43:11;;;;;;;22.70;5.53;;;26.50;99.90;;;;;;5049010;28;20021;-73
2022/08/21 09:45:37;;;;;;;17.30;4.07;;;26.40;99.90;;;;;;5042025;28;20393;-73
2022/08/21 09:48:24;;;;;;;17.27;4.38;;;26.40;99.90;;;;;;5028853;28;20351;-74
2022/08/21 09:50:52;;;;;;;14.32;3.63;;;26.40;99.90;;;;;;5029968;28;20033;-73
2022/08/21 09:53:28;;;;;;;15.65;3.80;;;26.60;99.90;;;;;;5030029;28;20037;-74
2022/08/21 09:58:48;;;;;;;13.35;3.83;;;26.70;99.90;;;;;;5029975;28;20036;-73
2022/08/21 10:01:24;;;;;;;16.77;3.90;;;26.70;99.90;;;;;;5040962;28;20107;-75
2022/08/21 10:04:10;;;;;;;10.40;3.17;;;26.90;99.90;;;;;;5048393;28;20021;-68
2022/08/21 10:06:37;;;;;;;18.55;4.28;;;27.00;99.90;;;;;;5047844;28;20045;-67
2022/08/21 10:09:12;;;;;;;16.67;3.25;;;27.20;99.90;;;;;;5029757;28;20112;-68
2022/08/21 10:11:40;;;;;;;14.13;3.47;;;27.20;99.90;;;;;;5030116;28;20485;-68
2022/08/21 10:14:31;;;;;;;10.98;3.60;;;27.30;99.90;;;;;;5031968;28;20088;-68
2022/08/21 10:17:01;;;;;;;17.20;3.90;;;27.40;99.90;;;;;;5048233;28;20045;-68
2022/08/21 10:19:48;;;;;;;21.35;3.40;;;27.50;99.90;;;;;;5053382;28;20039;-68
2022/08/21 10:22:23;;;;;;;16.20;3.97;;;27.50;99.90;;;;;;5051663;28;20071;-67
2022/08/21 10:25:05;;;;;;;14.18;3.42;;;27.40;99.90;;;;;;5051595;28;20032;-67
2022/08/21 10:27:44;;;;;;;16.75;3.85;;;27.30;99.90;;;;;;5047261;28;20025;-67
2022/08/21 10:30:45;;;;;;;15.65;4.20;;;27.40;99.90;;;;;;5033290;28;20045;-68
2022/08/21 10:33:42;;;;;;;16.42;3.85;;;27.50;99.90;;;;;;5033540;28;20500;-67
2022/08/21 10:36:35;;;;;;;16.05;3.00;;;27.50;99.90;;;;;;5033405;28;20029;-67
2022/08/21 10:39:32;;;;;;;13.93;4.90;;;27.50;99.90;;;;;;5049931;28;20291;-66
2022/08/21 10:42:17;;;;;;;15.52;3.75;;;27.20;99.90;;;;;;5052869;28;20072;-68
2022/08/21 10:44:58;;;;;;;15.50;3.35;;;27.40;99.90;;;;;;5052782;28;20546;-69
2022/08/21 10:47:27;;;;;;;13.27;4.15;;;27.90;99.30;;;;;;5051491;28;20036;-71
2022/08/21 10:50:15;;;;;;;17.58;3.58;;;27.80;99.50;;;;;;5052788;28;20025;-72
2022/08/21 10:52:59;;;;;;;10.85;3.05;;;27.90;99.20;;;;;;5050849;28;20036;-71
2022/08/21 10:55:50;;;;;;;13.13;3.30;;;27.60;99.30;;;;;;5049583;28;20044;-72
2022/08/21 10:58:28;;;;;;;13.13;3.00;;;27.60;99.30;;;;;;5051255;28;20021;-72
2022/08/21 11:01:00;;;;;;;24.73;3.88;;;27.90;99.30;;;;;;5051940;28;20057;-72
2022/08/21 11:03:43;;;;;;;17.23;3.67;;;28.00;99.00;;;;;;5032705;28;20034;-72
2022/08/21 11:06:13;;;;;;;18.42;3.53;;;28.10;98.90;;;;;;5032983;28;20360;-73
2022/08/21 11:08:42;;;;;;;12.90;3.20;;;28.00;98.40;;;;;;5042990;28;20032;-72
2022/08/21 11:11:35;;;;;;;11.43;3.00;;;27.70;98.80;;;;;;5052820;28;20103;-72
2022/08/21 11:14:08;;;;;;;15.00;3.20;;;27.70;98.70;;;;;;5051267;28;20503;-71
2022/08/21 11:16:41;;;;;;;16.48;4.35;;;28.00;98.60;;;;;;5052856;28;20522;-71
2022/08/21 11:19:30;;;;;;;20.85;3.90;;;28.50;97.70;;;;;;5052564;28;20024;-71
2022/08/21 11:22:09;;;;;;;16.00;3.95;;;28.80;97.20;;;;;;5052753;28;20369;-71
2022/08/21 11:24:52;;;;;;;16.63;3.78;;;28.80;96.80;;;;;;5050002;28;20044;-70
2022/08/21 11:27:29;;;;;;;15.15;3.30;;;28.90;97.30;;;;;;5033081;28;20421;-74
2022/08/21 11:30:00;;;;;;;14.27;4.20;;;29.20;96.80;;;;;;5032173;28;20171;-74
2022/08/21 11:32:54;;;;;;;11.40;3.08;;;29.50;96.60;;;;;;5039770;28;20031;-72
2022/08/21 11:35:34;;;;;;;12.90;3.22;;;29.70;95.50;;;;;;5052041;28;20041;-72
2022/08/21 11:38:03;;;;;;;11.43;3.78;;;29.80;95.00;;;;;;5050082;28;20358;-73
2022/08/21 11:40:49;;;;;;;18.48;3.97;;;29.70;95.40;;;;;;5032015;28;20420;-73
2022/08/21 11:43:20;;;;;;;20.20;3.78;;;29.70;95.10;;;;;;5032122;28;20030;-73
2022/08/21 11:45:59;;;;;;;13.48;3.20;;;29.50;95.40;;;;;;5030354;28;20034;-73
2022/08/21 11:48:31;;;;;;;14.15;3.95;;;29.00;95.60;;;;;;5046957;28;20033;-73
2022/08/21 11:50:58;;;;;;;16.85;3.70;;;29.00;95.80;;;;;;5051740;28;20037;-72
2022/08/21 11:53:38;;;;;;;15.50;3.05;;;29.10;95.70;;;;;;5049773;28;20030;-73
2022/08/21 11:56:14;;;;;;;12.60;3.33;;;29.20;95.20;;;;;;5046776;28;20063;-72
2022/08/21 11:58:51;;;;;;;19.15;3.92;;;29.10;95.30;;;;;;5032776;28;20485;-72
2022/08/21 12:01:42;;;;;;;13.40;3.53;;;29.00;95.40;;;;;;5043161;28;20048;-72
2022/08/21 12:04:22;;;;;;;18.55;4.05;;;29.00;95.80;;;;;;5050107;28;20021;-71
2022/08/21 12:06:49;;;;;;;15.35;3.42;;;28.90;95.80;;;;;;5050243;28;20036;-71
2022/08/21 12:09:23;;;;;;;;;;;28.70;96.00;;;;;;5043456;28;20485;-73
2022/08/21 12:12:01;;;;;;;14.23;3.58;;;28.60;96.00;;;;;;5030351;28;19920;-72
2022/08/21 12:14:46;;;;;;;12.98;3.55;;;28.30;96.40;;;;;;5031457;28;20497;-72
2022/08/21 12:17:34;;;;;;;22.48;3.95;;;28.20;96.90;;;;;;5031327;28;20180;-71
2022/08/21 12:20:15;;;;;;;14.23;3.65;;;28.00;97.50;;;;;;5050911;28;20086;-70
2022/08/21 12:22:47;;;;;;;23.23;4.47;;;28.00;97.50;;;;;;5051097;28;20043;-71
2022/08/21 12:25:17;;;;;;;12.18;2.95;;;28.00;97.60;;;;;;5047747;28;20048;-72
2022/08/21 12:27:51;;;;;;;18.30;4.80;;;28.00;97.10;;;;;;5049250;28;20048;-71
2022/08/21 12:30:25;;;;;;;17.15;3.30;;;28.00;97.60;;;;;;5050765;28;20083;-71
2022/08/21 12:32:58;;;;;;;14.07;3.78;;;28.00;97.60;;;;;;5045835;28;20412;-71
2022/08/21 12:35:38;;;;;;;17.00;3.25;;;28.00;97.60;;;;;;5030698;28;20052;-72
2022/08/21 12:38:15;;;;;;;15.10;3.85;;;28.00;97.80;;;;;;5030939;28;20415;-71
2022/08/21 12:41:04;;;;;;;14.63;3.47;;;27.90;97.90;;;;;;5046269;28;20363;-73
2022/08/21 12:43:33;;;;;;;14.48;3.20;;;27.90;97.80;;;;;;5050401;28;20392;-71
2022/08/21 12:46:00;;;;;;;16.95;4.20;;;28.00;97.80;;;;;;5050789;28;20025;-71
2022/08/21 12:48:40;;;;;;;13.32;3.58;;;28.00;97.70;;;;;;5042966;28;20033;-71
2022/08/21 12:51:18;;;;;;;15.90;3.75;;;28.00;97.90;;;;;;5031039;28;20110;-73
2022/08/21 12:53:49;;;;;;;14.30;3.72;;;27.90;98.20;;;;;;5029341;28;20029;-70
2022/08/21 12:56:19;;;;;;;22.52;3.13;;;27.70;98.50;;;;;;5031609;28;20033;-71
2022/08/21 12:59:03;;;;;;;18.15;3.90;;;27.40;98.60;;;;;;5029783;28;20044;-70